Time;durP1;ratioP1;P1;durP2;ratioP2;P2;SDS_P1;SDS_P2;PMS_P1;PMS_P2;Temp;Humidity;BMP_temperature;BMP_pressure;BME280_temperature;BME280_humidity;BME280_pressure;Samples;Min_cycle;Max_cycle;Signal;HPM_P1;HPM_P2
2022/03/26 00:00:48;;;;;;;7.77;4.27;;;8.00;99.90;;;;;;5093550;28;20196;-73
2022/03/26 00:03:14;;;;;;;6.43;2.73;;;8.20;99.90;;;;;;5093595;28;20200;-72
2022/03/26 00:05:40;;;;;;;10.77;5.77;;;8.20;99.90;;;;;;5092427;28;20184;-72
2022/03/26 00:08:07;;;;;;;4.43;3.83;;;8.20;99.90;;;;;;5093979;28;20190;-72
2022/03/26 00:10:32;;;;;;;3.43;2.77;;;8.30;99.90;;;;;;5093638;28;20187;-72
2022/03/26 00:12:58;;;;;;;4.13;3.83;;;8.30;99.90;;;;;;5093021;28;20203;-72
2022/03/26 00:15:25;;;;;;;9.93;5.87;;;8.30;99.90;;;;;;5082879;28;20563;-72
2022/03/26 00:17:50;;;;;;;2.47;2.37;;;8.20;99.90;;;;;;5092198;28;20179;-72
2022/03/26 00:20:16;;;;;;;8.47;6.53;;;8.30;99.90;;;;;;5093653;28;20190;-72
2022/03/26 00:22:42;;;;;;;15.73;5.23;;;8.30;99.90;;;;;;5079791;28;20196;-71
2022/03/26 00:25:09;;;;;;;5.17;4.70;;;8.30;99.90;;;;;;5093389;28;20185;-72
2022/03/26 00:27:35;;;;;;;10.47;4.30;;;8.30;99.90;;;;;;5092286;28;20186;-72
2022/03/26 00:30:03;;;;;;;7.87;6.70;;;8.30;99.90;;;;;;5091983;28;20262;-71
2022/03/26 00:32:29;;;;;;;4.80;4.37;;;8.30;99.90;;;;;;5092676;28;20291;-71
2022/03/26 00:34:55;;;;;;;11.47;6.90;;;8.30;99.90;;;;;;5093408;28;20184;-72
2022/03/26 00:37:21;;;;;;;11.13;4.93;;;8.30;99.90;;;;;;5093172;28;20267;-72
2022/03/26 00:39:46;;;;;;;7.53;6.23;;;8.30;99.90;;;;;;5093146;28;20229;-72
2022/03/26 00:42:12;;;;;;;11.47;6.00;;;8.20;99.90;;;;;;5092654;28;20214;-73
2022/03/26 00:44:38;;;;;;;5.80;3.70;;;8.10;99.90;;;;;;5093335;28;20186;-73
2022/03/26 00:47:06;;;;;;;6.23;3.97;;;8.10;99.90;;;;;;5093362;28;20177;-73
2022/03/26 00:49:31;;;;;;;5.30;3.97;;;8.00;99.90;;;;;;5082561;28;20263;-72
2022/03/26 00:51:57;;;;;;;12.93;6.77;;;7.90;99.90;;;;;;5092352;28;20227;-73
2022/03/26 00:54:24;;;;;;;3.93;2.50;;;7.80;99.90;;;;;;5093055;28;20689;-72
2022/03/26 00:56:50;;;;;;;16.30;4.47;;;7.80;99.90;;;;;;5092451;28;20718;-72
2022/03/26 00:59:15;;;;;;;3.60;3.30;;;7.70;99.90;;;;;;5092720;28;20309;-73
2022/03/26 01:01:41;;;;;;;3.27;3.00;;;7.70;99.90;;;;;;5092208;28;20204;-73
2022/03/26 01:04:07;;;;;;;3.87;3.53;;;7.60;99.90;;;;;;5092810;28;20190;-72
2022/03/26 01:06:34;;;;;;;13.60;7.73;;;7.60;99.90;;;;;;5091898;28;20195;-73
2022/03/26 01:08:59;;;;;;;5.03;3.77;;;7.50;99.90;;;;;;5091397;28;20267;-72
2022/03/26 01:11:25;;;;;;;7.90;5.07;;;7.50;99.90;;;;;;5092035;28;20346;-72
2022/03/26 01:13:53;;;;;;;7.00;4.40;;;7.50;99.90;;;;;;5089705;28;20227;-73
2022/03/26 01:16:19;;;;;;;11.77;7.60;;;7.40;99.90;;;;;;5078442;28;20180;-72
2022/03/26 01:18:44;;;;;;;6.67;5.10;;;7.40;99.90;;;;;;5090773;28;20228;-72
2022/03/26 01:21:10;;;;;;;4.83;3.43;;;7.30;99.90;;;;;;5089803;28;20199;-73
2022/03/26 01:23:36;;;;;;;12.57;6.17;;;7.30;99.90;;;;;;5085119;28;20206;-72
2022/03/26 01:26:03;;;;;;;6.03;5.53;;;7.20;99.90;;;;;;5092141;28;20183;-73
2022/03/26 01:28:30;;;;;;;4.90;4.50;;;7.10;99.90;;;;;;5091172;28;20249;-73
2022/03/26 01:30:56;;;;;;;7.10;3.97;;;7.20;99.90;;;;;;5090896;28;20208;-73
2022/03/26 01:33:22;;;;;;;4.67;4.27;;;7.20;99.90;;;;;;5091792;28;20249;-72
2022/03/26 01:35:47;;;;;;;3.80;3.50;;;7.10;99.90;;;;;;5091932;28;20188;-73
2022/03/26 01:38:13;;;;;;;7.97;5.90;;;7.10;99.90;;;;;;5092137;28;20236;-72
2022/03/26 01:40:38;;;;;;;6.63;5.57;;;7.00;99.90;;;;;;5091835;28;20203;-73
2022/03/26 01:43:06;;;;;;;9.17;6.33;;;7.00;99.90;;;;;;5091790;28;20215;-73
2022/03/26 01:45:31;;;;;;;4.90;4.40;;;6.90;99.90;;;;;;5092620;28;20198;-73
2022/03/26 01:47:58;;;;;;;2.70;2.30;;;6.80;99.90;;;;;;5092277;28;20667;-72
2022/03/26 01:50:25;;;;;;;32.30;6.93;;;6.70;99.90;;;;;;5092041;28;20186;-73
2022/03/26 01:52:51;;;;;;;6.43;3.93;;;6.70;99.90;;;;;;5091494;28;20206;-72
2022/03/26 01:55:18;;;;;;;3.67;3.43;;;6.60;99.90;;;;;;5090628;28;20176;-72
2022/03/26 01:57:44;;;;;;;7.47;5.57;;;6.50;99.90;;;;;;5091796;28;20202;-71
2022/03/26 02:00:11;;;;;;;8.27;5.23;;;6.50;99.90;;;;;;5092032;28;20658;-72
2022/03/26 02:02:43;;;;;;;2.77;2.67;;;6.40;99.90;;;;;;5089983;28;20207;-72
2022/03/26 02:05:12;;;;;;;2.17;2.07;;;6.40;99.90;;;;;;5091370;28;20546;-71
2022/03/26 02:07:39;;;;;;;2.77;2.63;;;6.30;99.90;;;;;;5091489;28;20183;-71
2022/03/26 02:10:08;;;;;;;4.23;2.67;;;6.20;99.90;;;;;;5091502;28;20588;-71
2022/03/26 02:12:34;;;;;;;3.23;2.47;;;6.20;99.90;;;;;;5091174;28;20213;-72
2022/03/26 02:14:59;;;;;;;2.87;2.37;;;6.20;99.90;;;;;;5079556;28;20176;-72
2022/03/26 02:17:25;;;;;;;5.97;4.13;;;6.30;99.90;;;;;;5088402;28;20970;-72
2022/03/26 02:19:54;;;;;;;4.87;4.07;;;6.30;99.90;;;;;;5091932;28;20180;-71
2022/03/26 02:22:21;;;;;;;7.90;3.90;;;6.20;99.90;;;;;;5082748;28;20248;-72
2022/03/26 02:24:48;;;;;;;6.50;5.77;;;6.10;99.90;;;;;;5091387;28;20187;-71
2022/03/26 02:27:13;;;;;;;8.73;6.23;;;6.10;99.90;;;;;;5091322;28;20176;-72
2022/03/26 02:29:39;;;;;;;4.70;4.33;;;6.00;99.90;;;;;;5091333;28;20246;-72
2022/03/26 02:32:06;;;;;;;2.60;2.40;;;5.90;99.90;;;;;;5090922;28;20229;-72
2022/03/26 02:34:32;;;;;;;7.10;6.50;;;5.80;99.90;;;;;;5091460;28;20249;-73
2022/03/26 02:36:58;;;;;;;7.07;5.73;;;5.80;99.90;;;;;;5089828;28;20662;-72
2022/03/26 02:39:24;;;;;;;2.87;2.67;;;5.70;99.90;;;;;;5091373;28;20175;-72
2022/03/26 02:41:49;;;;;;;3.97;3.30;;;5.70;99.90;;;;;;5090549;28;20234;-73
2022/03/26 02:44:15;;;;;;;4.97;4.43;;;5.70;99.90;;;;;;5091098;28;20228;-72
2022/03/26 02:46:41;;;;;;;6.53;3.13;;;5.70;99.90;;;;;;5090958;28;20175;-72
2022/03/26 02:49:07;;;;;;;8.30;6.90;;;5.80;99.90;;;;;;5090567;28;20668;-72
2022/03/26 02:51:32;;;;;;;1.37;1.33;;;6.00;99.90;;;;;;5089024;28;20600;-73
2022/03/26 02:53:58;;;;;;;7.10;5.63;;;6.10;99.90;;;;;;5087998;28;20702;-72
2022/03/26 02:56:23;;;;;;;7.00;5.00;;;6.20;99.90;;;;;;5089849;28;20535;-72
2022/03/26 02:58:49;;;;;;;8.97;5.73;;;6.30;99.90;;;;;;5090033;28;20655;-72
2022/03/26 03:01:15;;;;;;;6.53;4.33;;;6.30;99.90;;;;;;5090981;28;20199;-72
2022/03/26 03:03:40;;;;;;;6.93;6.27;;;6.40;99.90;;;;;;5092253;28;20179;-72
2022/03/26 03:06:06;;;;;;;1.80;1.70;;;6.40;99.90;;;;;;5097487;28;20188;-72
2022/03/26 03:08:33;;;;;;;3.23;3.13;;;6.30;99.90;;;;;;5093315;28;20203;-71
2022/03/26 03:10:58;;;;;;;2.60;2.40;;;6.30;99.90;;;;;;5089829;28;20200;-73
2022/03/26 03:13:24;;;;;;;7.00;5.77;;;6.20;99.90;;;;;;5090962;28;20198;-73
2022/03/26 03:15:51;;;;;;;17.57;5.83;;;6.20;99.90;;;;;;5077605;28;20176;-72
2022/03/26 03:18:17;;;;;;;6.13;4.13;;;6.20;99.90;;;;;;5094562;28;20180;-73
2022/03/26 03:20:43;;;;;;;4.60;2.77;;;6.20;99.90;;;;;;5095037;28;20172;-72
2022/03/26 03:23:09;;;;;;;6.47;5.83;;;6.10;99.90;;;;;;5086751;28;20535;-72
2022/03/26 03:25:34;;;;;;;6.53;5.70;;;6.00;99.90;;;;;;5094423;28;20176;-73
2022/03/26 03:28:00;;;;;;;6.70;6.17;;;6.00;99.90;;;;;;5093866;28;20184;-73
2022/03/26 03:30:26;;;;;;;4.10;3.80;;;5.90;99.90;;;;;;5092923;28;20274;-72
2022/03/26 03:32:53;;;;;;;5.93;3.67;;;5.80;99.90;;;;;;5094121;28;20238;-72
2022/03/26 03:35:19;;;;;;;17.57;6.27;;;5.80;99.90;;;;;;5094448;28;20172;-73
2022/03/26 03:37:44;;;;;;;8.03;5.80;;;5.80;99.90;;;;;;5094335;28;20191;-72
2022/03/26 03:40:11;;;;;;;4.57;4.30;;;5.80;99.90;;;;;;5094212;28;20180;-73
2022/03/26 03:42:37;;;;;;;5.53;5.03;;;5.80;99.90;;;;;;5093619;28;20222;-73
2022/03/26 03:45:04;;;;;;;8.27;6.13;;;5.80;99.90;;;;;;5092597;28;20184;-73
2022/03/26 03:47:29;;;;;;;8.40;6.23;;;5.70;99.90;;;;;;5094092;28;20184;-73
2022/03/26 03:49:55;;;;;;;7.20;3.60;;;5.70;99.90;;;;;;5094022;28;20237;-72
2022/03/26 03:52:21;;;;;;;5.00;4.60;;;5.70;99.90;;;;;;5092385;28;20741;-73
2022/03/26 03:54:46;;;;;;;8.23;3.73;;;5.60;99.90;;;;;;5094000;28;20589;-74
2022/03/26 03:57:12;;;;;;;4.70;4.30;;;5.60;99.90;;;;;;5093991;28;20199;-73
2022/03/26 03:59:41;;;;;;;3.80;3.40;;;5.50;99.90;;;;;;5093878;28;20198;-73
2022/03/26 04:02:09;;;;;;;6.23;5.73;;;5.40;99.90;;;;;;5093671;28;20207;-73
2022/03/26 04:04:39;;;;;;;10.20;5.87;;;5.30;99.90;;;;;;5093776;28;20168;-73
2022/03/26 04:07:05;;;;;;;4.40;4.10;;;5.30;99.90;;;;;;5092525;28;20612;-73
2022/03/26 04:09:31;;;;;;;7.90;6.97;;;5.20;99.90;;;;;;5091948;28;20179;-73
2022/03/26 04:11:56;;;;;;;9.00;3.30;;;5.10;99.90;;;;;;5093658;28;20265;-72
2022/03/26 04:14:22;;;;;;;14.53;6.10;;;5.00;99.90;;;;;;5086360;28;20204;-73
2022/03/26 04:16:47;;;;;;;9.50;3.63;;;5.00;99.90;;;;;;5085485;28;20555;-73
2022/03/26 04:19:13;;;;;;;4.93;4.60;;;4.90;99.90;;;;;;5093600;28;20218;-73
2022/03/26 04:21:39;;;;;;;3.73;3.47;;;4.90;99.90;;;;;;5086710;28;20200;-73
2022/03/26 04:24:05;;;;;;;4.33;3.27;;;4.90;99.90;;;;;;5092222;28;20182;-73
2022/03/26 04:26:30;;;;;;;4.33;2.97;;;4.90;99.90;;;;;;5092809;28;20190;-73
2022/03/26 04:28:56;;;;;;;13.00;3.77;;;4.90;99.90;;;;;;5093479;28;20266;-72
2022/03/26 04:31:21;;;;;;;3.87;3.67;;;4.90;99.90;;;;;;5093261;28;20219;-72
2022/03/26 04:33:47;;;;;;;2.57;2.37;;;4.80;99.90;;;;;;5093294;28;20218;-73
2022/03/26 04:36:12;;;;;;;4.53;4.30;;;4.80;99.90;;;;;;5091762;28;20187;-73
2022/03/26 04:38:38;;;;;;;6.50;5.63;;;4.80;99.90;;;;;;5091762;28;20639;-73
2022/03/26 04:41:03;;;;;;;6.27;5.67;;;4.70;99.90;;;;;;5092999;28;20678;-73
2022/03/26 04:43:29;;;;;;;4.50;4.10;;;4.50;99.90;;;;;;5092820;28;20274;-72
2022/03/26 04:45:55;;;;;;;12.63;5.13;;;4.30;99.90;;;;;;5091984;28;20183;-73
2022/03/26 04:48:20;;;;;;;7.93;5.37;;;4.20;99.90;;;;;;5091742;28;20183;-73
2022/03/26 04:50:46;;;;;;;3.40;2.90;;;4.10;99.90;;;;;;5093009;28;20199;-73
2022/03/26 04:53:13;;;;;;;15.57;4.87;;;4.10;99.90;;;;;;5092104;28;20196;-73
2022/03/26 04:55:39;;;;;;;4.87;3.77;;;4.10;99.90;;;;;;5092791;28;20179;-73
2022/03/26 04:58:04;;;;;;;6.93;5.30;;;4.10;99.90;;;;;;5092693;28;20168;-73
2022/03/26 05:00:30;;;;;;;11.83;5.93;;;4.20;99.90;;;;;;5091606;28;20647;-73
2022/03/26 05:02:55;;;;;;;3.37;2.97;;;4.20;99.90;;;;;;5092592;28;20654;-72
2022/03/26 05:05:21;;;;;;;4.17;3.97;;;4.20;99.90;;;;;;5092650;28;20237;-72
2022/03/26 05:07:46;;;;;;;15.90;3.47;;;4.10;99.90;;;;;;5092434;28;20551;-71
2022/03/26 05:10:18;;;;;;;3.70;3.47;;;4.10;99.90;;;;;;5092473;28;20634;-71
2022/03/26 05:12:44;;;;;;;10.67;9.63;;;4.20;99.90;;;;;;5092094;28;20294;-71
2022/03/26 05:15:11;;;;;;;6.40;5.20;;;4.20;99.90;;;;;;5077320;28;20763;-72
2022/03/26 05:17:37;;;;;;;2.13;2.03;;;4.10;99.90;;;;;;5090749;28;20184;-72
2022/03/26 05:20:08;;;;;;;5.77;5.33;;;4.10;99.90;;;;;;5092454;28;20225;-72
2022/03/26 05:22:34;;;;;;;6.03;4.03;;;4.00;99.90;;;;;;5082921;28;20290;-71
2022/03/26 05:25:00;;;;;;;5.80;4.43;;;3.90;99.90;;;;;;5092366;28;20278;-73
2022/03/26 05:27:26;;;;;;;4.53;4.13;;;3.90;99.90;;;;;;5092260;28;20544;-73
2022/03/26 05:29:52;;;;;;;7.07;6.40;;;3.90;99.90;;;;;;5091344;28;20713;-73
2022/03/26 05:32:17;;;;;;;5.77;4.03;;;4.00;99.90;;;;;;5091918;28;20192;-72
2022/03/26 05:34:44;;;;;;;7.70;4.83;;;4.00;99.90;;;;;;5091009;28;20179;-73
2022/03/26 05:37:10;;;;;;;6.20;5.73;;;4.10;99.90;;;;;;5091851;28;20642;-73
2022/03/26 05:39:35;;;;;;;6.03;5.50;;;4.10;99.90;;;;;;5091064;28;20252;-72
2022/03/26 05:42:01;;;;;;;4.90;3.63;;;4.10;99.90;;;;;;5091473;28;20322;-72
2022/03/26 05:44:26;;;;;;;8.73;3.93;;;3.90;99.90;;;;;;5090928;28;20183;-72
2022/03/26 05:46:52;;;;;;;19.13;6.10;;;3.80;99.90;;;;;;5091848;28;20248;-72
2022/03/26 05:49:19;;;;;;;4.03;3.77;;;3.80;99.90;;;;;;5092029;28;20554;-72
2022/03/26 05:51:45;;;;;;;4.27;3.97;;;4.00;99.90;;;;;;5091385;28;20208;-72
2022/03/26 05:54:12;;;;;;;4.97;4.57;;;4.10;99.90;;;;;;5091850;28;20223;-72
2022/03/26 05:56:38;;;;;;;12.40;5.50;;;4.20;99.90;;;;;;5091655;28;20202;-72
2022/03/26 05:59:10;;;;;;;25.53;5.70;;;4.30;99.90;;;;;;5091761;28;20171;-72
2022/03/26 06:01:36;;;;;;;5.67;5.23;;;4.40;99.90;;;;;;5091221;28;20202;-73
2022/03/26 06:04:02;;;;;;;5.67;5.17;;;4.40;99.90;;;;;;5091820;28;20547;-73
2022/03/26 06:06:28;;;;;;;16.53;8.33;;;4.50;99.90;;;;;;5091524;28;20183;-73
2022/03/26 06:08:54;;;;;;;7.33;5.07;;;4.50;99.90;;;;;;5091614;28;20190;-73
2022/03/26 06:11:20;;;;;;;6.67;4.23;;;4.60;99.90;;;;;;5091416;28;20587;-73
2022/03/26 06:13:46;;;;;;;7.57;6.00;;;4.60;99.90;;;;;;5089495;28;20286;-73
2022/03/26 06:16:11;;;;;;;5.80;3.30;;;4.70;99.90;;;;;;5078260;28;20168;-73
2022/03/26 06:18:37;;;;;;;4.60;3.40;;;4.60;99.90;;;;;;5091239;28;20181;-73
2022/03/26 06:21:05;;;;;;;4.63;4.27;;;4.50;99.90;;;;;;5089397;28;20552;-72
2022/03/26 06:23:31;;;;;;;3.53;3.20;;;4.40;99.90;;;;;;5087553;28;20675;-72
2022/03/26 06:25:57;;;;;;;9.70;6.67;;;4.50;99.90;;;;;;5092365;28;20186;-72
2022/03/26 06:28:22;;;;;;;8.43;4.13;;;4.60;99.90;;;;;;5092724;28;20180;-73
2022/03/26 06:30:48;;;;;;;3.90;3.63;;;4.70;99.90;;;;;;5094174;28;20199;-72
2022/03/26 06:33:15;;;;;;;8.10;5.80;;;4.80;99.90;;;;;;5091113;28;20195;-73
2022/03/26 06:35:45;;;;;;;4.60;4.33;;;4.90;99.90;;;;;;5091386;28;20164;-73
2022/03/26 06:38:10;;;;;;;4.90;4.50;;;4.90;99.90;;;;;;5090949;28;20172;-72
2022/03/26 06:40:37;;;;;;;11.10;7.00;;;5.00;99.90;;;;;;5089871;28;20735;-73
2022/03/26 06:43:04;;;;;;;9.53;5.60;;;5.20;99.90;;;;;;5091197;28;20179;-73
2022/03/26 06:45:30;;;;;;;8.30;5.50;;;5.20;99.90;;;;;;5091185;28;20172;-73
2022/03/26 06:47:55;;;;;;;9.73;3.47;;;5.30;99.90;;;;;;5090941;28;20208;-73
2022/03/26 06:50:21;;;;;;;6.70;5.93;;;5.50;99.90;;;;;;5092674;28;20536;-73
2022/03/26 06:52:46;;;;;;;12.20;5.23;;;5.60;99.90;;;;;;5094863;28;20234;-75
2022/03/26 06:55:12;;;;;;;7.50;4.03;;;5.80;99.90;;;;;;5095509;28;20172;-75
2022/03/26 06:57:38;;;;;;;3.53;3.33;;;6.00;99.90;;;;;;5095828;28;20271;-75
2022/03/26 07:00:05;;;;;;;7.40;6.70;;;6.10;99.90;;;;;;5094077;28;20244;-75
2022/03/26 07:02:31;;;;;;;5.90;4.03;;;6.30;99.90;;;;;;5094815;28;20206;-73
2022/03/26 07:04:57;;;;;;;11.40;6.30;;;6.50;99.90;;;;;;5095250;28;20184;-73
2022/03/26 07:07:23;;;;;;;6.30;5.70;;;6.70;99.90;;;;;;5095049;28;20576;-74
2022/03/26 07:09:48;;;;;;;5.20;4.90;;;6.90;99.90;;;;;;5094986;28;20221;-73
2022/03/26 07:12:14;;;;;;;13.07;7.57;;;7.10;99.90;;;;;;5093026;28;20248;-73
2022/03/26 07:14:39;;;;;;;14.80;7.57;;;7.30;99.90;;;;;;5085185;28;20175;-73
2022/03/26 07:17:05;;;;;;;8.73;6.20;;;7.50;99.90;;;;;;5088995;28;20237;-73
2022/03/26 07:19:31;;;;;;;7.43;5.60;;;7.70;99.90;;;;;;5094973;28;20249;-73
2022/03/26 07:21:57;;;;;;;9.10;6.70;;;7.90;99.90;;;;;;5086487;28;20683;-73
2022/03/26 07:24:22;;;;;;;10.10;5.30;;;8.00;99.90;;;;;;5094649;28;20211;-73
2022/03/26 07:26:48;;;;;;;8.97;7.80;;;8.20;99.90;;;;;;5094406;28;20182;-73
2022/03/26 07:29:13;;;;;;;5.40;4.90;;;8.30;99.90;;;;;;5094662;28;20543;-73
2022/03/26 07:31:39;;;;;;;14.13;6.40;;;8.50;99.90;;;;;;5094157;28;20215;-73
2022/03/26 07:34:04;;;;;;;11.57;6.33;;;8.70;99.90;;;;;;5094517;28;20203;-72
2022/03/26 07:36:32;;;;;;;17.60;6.73;;;8.80;99.90;;;;;;5094261;28;20294;-74
2022/03/26 07:38:58;;;;;;;16.83;8.07;;;8.90;99.90;;;;;;5094474;28;20692;-74
2022/03/26 07:41:23;;;;;;;8.80;7.13;;;9.10;99.90;;;;;;5093700;28;20218;-73
2022/03/26 07:43:49;;;;;;;17.13;10.37;;;9.30;99.90;;;;;;5094344;28;20176;-73
2022/03/26 07:46:18;;;;;;;19.20;4.77;;;9.50;99.90;;;;;;5094257;28;20586;-74
2022/03/26 07:48:44;;;;;;;6.43;5.83;;;9.60;99.90;;;;;;5092974;28;20198;-73
2022/03/26 07:51:30;;;;;;;6.37;5.73;;;9.70;99.90;;;;;;5093579;28;20203;-73
2022/03/26 07:53:56;;;;;;;11.73;8.30;;;9.90;99.90;;;;;;5094093;28;20214;-73
2022/03/26 07:56:22;;;;;;;6.73;6.23;;;9.90;99.90;;;;;;5093815;28;20173;-73
2022/03/26 07:58:49;;;;;;;8.97;5.40;;;10.20;99.90;;;;;;5094174;28;20177;-73
2022/03/26 08:01:15;;;;;;;12.93;8.50;;;10.30;99.90;;;;;;5093024;28;20212;-73
2022/03/26 08:03:40;;;;;;;17.13;6.87;;;10.40;99.90;;;;;;5093559;28;20187;-74
2022/03/26 08:06:06;;;;;;;17.27;9.63;;;10.50;99.90;;;;;;5093730;28;20183;-73
2022/03/26 08:08:32;;;;;;;10.37;8.23;;;10.70;99.90;;;;;;5094019;28;20183;-73
2022/03/26 08:10:58;;;;;;;12.53;8.47;;;10.80;99.90;;;;;;5094271;28;20203;-73
2022/03/26 08:13:23;;;;;;;19.93;7.50;;;10.90;99.90;;;;;;5093953;28;20295;-73
2022/03/26 08:15:49;;;;;;;8.73;5.43;;;11.00;99.90;;;;;;5078427;28;20584;-74
2022/03/26 08:18:16;;;;;;;8.67;7.30;;;11.00;99.90;;;;;;5093674;28;20191;-74
2022/03/26 08:20:43;;;;;;;6.47;5.37;;;11.00;99.90;;;;;;5093663;28;20180;-73
2022/03/26 08:23:08;;;;;;;15.93;8.37;;;11.10;99.90;;;;;;5086721;28;20179;-73
2022/03/26 08:28:18;;;;;;;7.07;6.17;;;11.30;99.90;;;;;;5093260;28;20606;-74
2022/03/26 08:30:44;;;;;;;8.40;4.60;;;11.40;99.90;;;;;;5093854;28;20171;-74
2022/03/26 08:33:09;;;;;;;11.73;7.67;;;11.40;99.90;;;;;;5076558;28;20208;-74
2022/03/26 08:35:36;;;;;;;5.17;4.87;;;11.30;99.90;;;;;;5072345;28;20191;-73
2022/03/26 08:38:03;;;;;;;22.13;8.93;;;11.30;99.90;;;;;;5087292;28;20210;-74
2022/03/26 08:40:29;;;;;;;11.03;6.63;;;11.40;99.90;;;;;;5091917;28;20698;-73
2022/03/26 08:42:54;;;;;;;8.60;5.73;;;11.60;99.90;;;;;;5092839;28;20290;-74
2022/03/26 08:45:20;;;;;;;8.47;7.67;;;12.20;99.90;;;;;;5066573;28;20188;-73
2022/03/26 08:47:46;;;;;;;10.83;6.63;;;12.40;99.90;;;;;;5065362;28;20184;-75
2022/03/26 08:50:12;;;;;;;6.33;5.77;;;12.70;99.90;;;;;;5065240;28;20234;-73
2022/03/26 08:52:37;;;;;;;7.93;7.23;;;12.90;99.90;;;;;;5066351;28;20212;-74
2022/03/26 08:55:04;;;;;;;14.23;9.70;;;13.00;99.90;;;;;;5067204;28;20183;-74
2022/03/26 08:57:30;;;;;;;14.17;7.50;;;13.10;99.90;;;;;;5064181;28;20196;-74
2022/03/26 08:59:59;;;;;;;8.90;7.57;;;13.30;99.90;;;;;;5065248;28;20219;-74
2022/03/26 09:02:25;;;;;;;18.30;9.23;;;13.50;99.90;;;;;;5064511;28;20683;-74
2022/03/26 09:04:50;;;;;;;12.20;9.47;;;13.60;99.90;;;;;;5064140;28;20180;-74
2022/03/26 09:07:16;;;;;;;7.73;6.03;;;13.50;99.90;;;;;;5066745;28;20176;-74
2022/03/26 09:09:41;;;;;;;7.57;6.93;;;13.80;99.90;;;;;;5063997;28;20176;-74
2022/03/26 09:12:07;;;;;;;9.60;7.27;;;14.10;99.90;;;;;;5063564;28;20200;-74
2022/03/26 09:14:33;;;;;;;22.10;9.50;;;14.20;99.90;;;;;;5066052;28;20684;-74
2022/03/26 09:16:59;;;;;;;11.23;6.60;;;14.30;99.90;;;;;;5064571;28;20551;-74
2022/03/26 09:19:24;;;;;;;10.70;6.20;;;14.50;99.90;;;;;;5066839;28;20169;-74
2022/03/26 09:21:50;;;;;;;10.90;7.60;;;14.60;99.90;;;;;;5065346;28;20295;-74
2022/03/26 09:24:16;;;;;;;22.17;11.73;;;14.60;99.90;;;;;;5066537;28;20229;-74
2022/03/26 09:26:42;;;;;;;12.03;7.83;;;14.80;99.90;;;;;;5084897;28;20197;-74
2022/03/26 09:29:08;;;;;;;11.83;9.30;;;14.90;99.90;;;;;;5090922;28;20188;-74
2022/03/26 09:31:34;;;;;;;10.77;8.67;;;15.00;99.90;;;;;;5071451;28;20348;-74
2022/03/26 09:33:59;;;;;;;8.93;8.13;;;15.30;99.90;;;;;;5092282;28;20209;-74
2022/03/26 09:36:25;;;;;;;11.63;9.97;;;15.30;99.90;;;;;;5090986;28;20184;-74
2022/03/26 09:38:50;;;;;;;9.37;5.90;;;15.30;99.90;;;;;;5090859;28;20191;-74
2022/03/26 09:41:16;;;;;;;9.70;6.40;;;15.30;99.90;;;;;;5091910;28;20248;-74
2022/03/26 09:43:42;;;;;;;9.00;7.32;;;15.20;99.90;;;;;;5091886;28;20398;-74
2022/03/26 09:46:08;;;;;;;26.17;9.55;;;15.50;99.90;;;;;;5089868;28;20391;-74
2022/03/26 09:48:35;;;;;;;22.67;10.47;;;15.90;99.90;;;;;;5091803;28;20758;-74
2022/03/26 09:51:01;;;;;;;12.70;7.50;;;16.10;99.90;;;;;;5092160;28;20200;-74
2022/03/26 09:53:27;;;;;;;15.17;7.97;;;16.00;99.90;;;;;;5091844;28;20312;-74
2022/03/26 09:55:53;;;;;;;12.33;7.33;;;15.60;99.90;;;;;;5090859;28;20267;-74
2022/03/26 09:58:19;;;;;;;13.35;8.77;;;15.40;99.90;;;;;;5091743;28;20398;-74
2022/03/26 10:00:45;;;;;;;19.33;10.00;;;15.80;99.90;;;;;;5091171;28;20391;-74
2022/03/26 10:03:10;;;;;;;10.20;7.27;;;16.40;99.90;;;;;;5091328;28;20175;-74
2022/03/26 10:05:36;;;;;;;12.50;7.83;;;16.80;99.90;;;;;;5089787;28;20179;-74
2022/03/26 10:08:14;;;;;;;13.70;7.23;;;16.90;99.90;;;;;;5090559;28;20558;-75
2022/03/26 10:10:45;;;;;;;13.40;7.57;;;16.40;99.90;;;;;;5091573;28;20179;-74
2022/03/26 10:13:12;;;;;;;10.50;6.97;;;16.00;99.90;;;;;;5089719;28;20203;-74
2022/03/26 10:16:01;;;;;;;6.83;6.20;;;16.60;99.90;;;;;;5075908;28;20234;-74
2022/03/26 10:18:33;;;;;;;11.23;6.43;;;17.10;99.90;;;;;;5091589;28;20183;-73
2022/03/26 10:21:00;;;;;;;11.60;7.13;;;17.50;99.90;;;;;;5090665;28;20563;-74
2022/03/26 10:23:29;;;;;;;9.77;7.67;;;17.70;99.90;;;;;;5084115;28;20186;-74
2022/03/26 10:26:09;;;;;;;6.67;5.80;;;17.60;99.90;;;;;;5076241;28;20195;-74
2022/03/26 10:28:35;;;;;;;8.67;5.50;;;17.90;99.90;;;;;;5090134;28;20179;-74
2022/03/26 10:34:11;;;;;;;13.07;6.93;;;18.00;99.90;;;;;;5066727;28;20214;-74
2022/03/26 10:36:45;;;;;;;16.00;7.50;;;18.10;99.90;;;;;;5091549;28;20202;-74
2022/03/26 10:39:16;;;;;;;17.90;9.02;;;18.30;99.90;;;;;;5090037;28;20426;-74
2022/03/26 10:41:42;;;;;;;12.47;6.93;;;18.80;99.90;;;;;;5090772;28;20229;-74
2022/03/26 10:44:13;;;;;;;8.27;5.97;;;19.10;99.90;;;;;;5091436;28;20179;-74
2022/03/26 10:46:52;;;;;;;13.87;6.80;;;19.20;99.90;;;;;;5089740;28;20180;-74
2022/03/26 10:49:28;;;;;;;8.40;7.13;;;19.40;99.90;;;;;;5091192;28;20179;-74
2022/03/26 10:51:54;;;;;;;14.03;7.23;;;18.70;99.90;;;;;;5091095;28;20193;-74
2022/03/26 10:54:28;;;;;;;20.37;8.37;;;19.00;99.90;;;;;;5091111;28;20282;-74
2022/03/26 10:56:53;;;;;;;12.70;5.90;;;20.10;99.90;;;;;;5091064;28;20257;-74
2022/03/26 10:59:20;;;;;;;13.57;7.10;;;20.90;98.80;;;;;;5090871;28;20217;-74
2022/03/26 11:01:45;;;;;;;11.53;6.67;;;21.10;95.30;;;;;;5091069;28;20226;-74
2022/03/26 11:04:11;;;;;;;15.97;8.30;;;21.70;94.80;;;;;;5091095;28;20720;-74
2022/03/26 11:06:39;;;;;;;26.13;6.80;;;20.70;95.10;;;;;;5090583;28;20666;-74
2022/03/26 11:09:06;;;;;;;8.73;7.27;;;21.30;91.00;;;;;;5090964;28;20183;-75
2022/03/26 11:11:32;;;;;;;15.10;7.90;;;22.20;89.90;;;;;;5090503;28;20337;-74
2022/03/26 11:14:05;;;;;;;20.50;5.47;;;22.70;81.50;;;;;;5087254;28;20283;-74
2022/03/26 11:16:52;;;;;;;12.57;5.10;;;22.30;76.80;;;;;;5080524;28;20390;-74
2022/03/26 11:19:55;;;;;;;14.73;8.33;;;23.40;73.30;;;;;;5089770;28;20387;-74
2022/03/26 11:22:51;;;;;;;14.43;6.60;;;24.10;71.50;;;;;;5082458;28;20223;-75
2022/03/26 11:25:32;;;;;;;18.50;8.93;;;24.30;69.60;;;;;;5090530;28;20779;-75
2022/03/26 11:28:21;;;;;;;12.90;7.07;;;22.80;69.30;;;;;;5090983;28;20762;-74
2022/03/26 11:31:05;;;;;;;10.77;6.87;;;20.80;74.90;;;;;;5090748;28;20184;-74
2022/03/26 11:33:36;;;;;;;15.70;8.43;;;21.30;74.40;;;;;;5090184;28;20346;-74
2022/03/26 11:36:04;;;;;;;20.23;7.83;;;21.60;75.00;;;;;;5090946;28;20187;-74
2022/03/26 11:38:31;;;;;;;11.20;7.50;;;21.60;73.50;;;;;;5093561;28;20681;-75
2022/03/26 11:41:05;;;;;;;24.43;7.50;;;23.20;71.30;;;;;;5094076;28;20238;-74
2022/03/26 11:43:52;;;;;;;11.50;6.67;;;22.90;71.20;;;;;;5094089;28;20176;-74
2022/03/26 11:52:35;;;;;;;11.73;7.10;;;22.10;70.00;;;;;;5094169;28;20751;-75
2022/03/26 11:55:25;;;;;;;6.73;5.83;;;23.40;69.80;;;;;;5092436;28;20191;-74
2022/03/26 11:58:13;;;;;;;29.13;8.83;;;22.60;68.20;;;;;;5094301;28;20263;-75
2022/03/26 12:01:15;;;;;;;13.40;7.57;;;25.60;66.20;;;;;;5094236;28;20206;-75
2022/03/26 12:03:42;;;;;;;12.33;5.70;;;26.10;61.40;;;;;;5041824;28;20179;-75
2022/03/26 12:08:53;;;;;;;16.20;7.23;;;26.60;58.70;;;;;;5094156;28;20259;-75
2022/03/26 12:11:33;;;;;;;15.90;5.70;;;26.50;59.30;;;;;;5093652;28;20192;-75
2022/03/26 12:14:00;;;;;;;13.00;6.57;;;24.50;58.70;;;;;;5089496;28;20207;-75
2022/03/26 12:16:50;;;;;;;19.73;8.50;;;25.10;59.10;;;;;;5082644;28;20575;-75
2022/03/26 12:19:36;;;;;;;11.10;5.43;;;24.90;58.90;;;;;;5092416;28;20183;-75
2022/03/26 12:22:21;;;;;;;15.47;9.17;;;24.30;59.20;;;;;;5085139;28;20197;-75
2022/03/26 12:24:48;;;;;;;17.77;7.33;;;24.50;59.30;;;;;;5093490;28;20213;-75
2022/03/26 12:27:14;;;;;;;9.07;5.57;;;25.60;57.90;;;;;;5093506;28;20182;-75
2022/03/26 12:29:40;;;;;;;7.50;5.57;;;25.80;57.20;;;;;;5093747;28;20187;-75
2022/03/26 12:32:06;;;;;;;13.73;8.00;;;26.20;56.10;;;;;;5091256;28;20203;-75
2022/03/26 12:34:32;;;;;;;16.50;7.53;;;25.80;55.70;;;;;;5093348;28;20286;-74
2022/03/26 12:37:04;;;;;;;6.43;4.33;;;27.90;55.30;;;;;;5091756;28;20712;-75
2022/03/26 12:39:30;;;;;;;8.13;5.60;;;29.30;53.50;;;;;;5093455;28;20233;-75
2022/03/26 12:41:56;;;;;;;9.77;4.33;;;27.90;50.90;;;;;;5092687;28;20218;-74
2022/03/26 12:44:23;;;;;;;14.37;3.73;;;27.50;50.90;;;;;;5093149;28;20727;-75
2022/03/26 12:46:49;;;;;;;3.70;3.00;;;28.00;50.70;;;;;;5092868;28;20202;-75
2022/03/26 12:49:19;;;;;;;6.67;4.50;;;28.10;49.10;;;;;;5092614;28;20172;-75
2022/03/26 12:51:49;;;;;;;4.77;3.73;;;29.20;48.50;;;;;;5092431;28;20312;-75
2022/03/26 12:54:14;;;;;;;5.20;3.50;;;30.20;47.10;;;;;;5092929;28;20230;-75
2022/03/26 12:56:41;;;;;;;10.03;4.13;;;30.70;46.00;;;;;;5092981;28;20199;-73
2022/03/26 12:59:07;;;;;;;5.90;4.03;;;30.80;46.50;;;;;;5091660;28;20191;-75
2022/03/26 13:01:33;;;;;;;5.03;4.50;;;31.00;44.10;;;;;;5092375;28;20184;-75
2022/03/26 13:03:59;;;;;;;9.47;3.53;;;29.60;45.20;;;;;;5091542;28;20206;-75
2022/03/26 13:06:25;;;;;;;9.83;2.87;;;30.40;44.10;;;;;;5091255;28;20646;-75